Time;durP1;ratioP1;P1;durP2;ratioP2;P2;SDS_P1;SDS_P2;PMS_P1;PMS_P2;Temp;Humidity;BMP_temperature;BMP_pressure;BME280_temperature;BME280_humidity;BME280_pressure;Samples;Min_cycle;Max_cycle;Signal;HPM_P1;HPM_P2
2023/07/12 00:00:48;;;;;;;5.97;2.70;;;;;;;19.92;81.83;100808.28;4896045;29;20031;-52
2023/07/12 00:03:15;;;;;;;4.90;2.55;;;;;;;19.92;81.18;100805.66;4896092;29;20391;-52
2023/07/12 00:05:42;;;;;;;5.15;2.63;;;;;;;19.92;81.07;100802.13;4896352;29;20024;-52
2023/07/12 00:08:22;;;;;;;6.30;3.00;;;;;;;19.91;80.60;100801.25;4896156;29;20024;-52
2023/07/12 00:10:49;;;;;;;4.47;2.58;;;;;;;19.87;81.42;100796.94;4885274;29;20036;-53
2023/07/12 00:13:15;;;;;;;8.93;2.78;;;;;;;19.87;82.62;100796.94;4895006;29;20407;-53
2023/07/12 00:15:41;;;;;;;6.18;3.30;;;;;;;19.82;82.03;100801.41;4896081;29;20029;-52
2023/07/12 00:18:19;;;;;;;5.60;2.85;;;;;;;19.72;82.48;100827.06;4896036;29;20098;-53
2023/07/12 00:20:48;;;;;;;5.30;2.80;;;;;;;19.64;83.45;100837.75;4878545;29;20036;-51
2023/07/12 00:23:15;;;;;;;4.95;3.13;;;;;;;19.60;83.43;100843.97;4895954;29;20025;-53
2023/07/12 00:25:42;;;;;;;5.60;3.30;;;;;;;19.50;83.50;100845.00;4894937;29;20028;-53
2023/07/12 00:28:23;;;;;;;6.82;3.30;;;;;;;19.36;83.93;100842.53;4895957;29;20095;-52
2023/07/12 00:30:51;;;;;;;5.90;3.22;;;;;;;19.26;85.04;100852.38;4898762;29;20059;-51
2023/07/12 00:33:17;;;;;;;7.70;3.50;;;;;;;19.18;85.70;100854.22;4914574;29;20071;-52
2023/07/12 00:35:42;;;;;;;6.88;3.95;;;;;;;19.13;85.24;100853.38;4913484;29;20039;-52
2023/07/12 00:38:31;;;;;;;9.82;3.95;;;;;;;19.14;83.98;100863.06;4912792;29;20036;-52
2023/07/12 00:41:14;;;;;;;7.03;3.70;;;;;;;19.09;83.86;100867.53;4910291;29;20103;-53
2023/07/12 00:43:44;;;;;;;6.70;3.50;;;;;;;19.07;85.59;100871.94;4906876;29;20179;-54
2023/07/12 00:46:16;;;;;;;6.70;3.60;;;;;;;19.06;85.89;100875.47;4910399;29;20082;-53
2023/07/12 00:48:46;;;;;;;8.05;3.70;;;;;;;19.06;84.71;100870.19;4912308;29;20028;-53
2023/07/12 00:51:28;;;;;;;8.48;3.70;;;;;;;19.04;84.15;100877.25;4910436;29;20031;-52
2023/07/12 00:53:55;;;;;;;6.10;3.70;;;;;;;19.02;83.83;100882.56;4908114;29;20051;-53
2023/07/12 00:56:20;;;;;;;8.48;3.92;;;;;;;18.99;83.80;100887.88;4912938;29;20043;-52
2023/07/12 00:58:49;;;;;;;8.00;4.03;;;;;;;18.89;83.85;100895.00;4911935;29;20035;-53
2023/07/12 01:01:15;;;;;;;;;;;;;;;18.74;83.46;100889.84;4913863;29;20028;-51
2023/07/12 01:03:45;;;;;;;8.55;4.10;;;;;;;18.70;83.07;100890.78;4913070;29;20435;-53
2023/07/12 01:06:13;;;;;;;8.10;3.67;;;;;;;18.54;84.01;100916.44;4913094;29;20442;-53
2023/07/12 01:08:41;;;;;;;8.95;3.60;;;;;;;18.47;83.25;100905.03;4912100;29;20028;-52
2023/07/12 01:11:08;;;;;;;9.60;3.60;;;;;;;18.48;82.89;100906.81;4912079;29;20036;-53
2023/07/12 01:13:35;;;;;;;8.18;3.72;;;;;;;18.35;83.18;100916.56;4912322;29;20032;-52
2023/07/12 01:16:02;;;;;;;8.45;4.00;;;;;;;18.28;83.90;100919.25;4912906;29;20111;-52
2023/07/12 01:18:28;;;;;;;7.85;4.07;;;;;;;18.18;84.66;100857.81;4912537;29;21415;-52
2023/07/12 01:21:18;;;;;;;10.20;4.60;;;;;;;18.12;84.23;100861.34;4913485;29;20513;-53
2023/07/12 01:23:45;;;;;;;9.07;3.95;;;;;;;18.06;84.89;100874.56;4912419;29;20028;-53
2023/07/12 01:26:19;;;;;;;10.35;4.03;;;;;;;17.97;85.90;100858.81;4894505;29;20563;-52
2023/07/12 01:28:47;;;;;;;9.27;4.03;;;;;;;17.96;85.80;100867.59;4908159;29;20047;-52
2023/07/12 01:31:12;;;;;;;10.45;4.03;;;;;;;17.90;86.52;100873.78;4902271;29;20053;-53
2023/07/12 01:33:37;;;;;;;8.52;3.75;;;;;;;17.84;87.10;100889.63;4902843;29;20035;-53
2023/07/12 01:36:03;;;;;;;11.80;5.10;;;;;;;17.75;89.10;100876.50;4900322;29;20122;-51
2023/07/12 01:38:28;;;;;;;10.20;4.28;;;;;;;17.70;89.19;100860.72;4902878;29;20067;-50
2023/07/12 01:40:53;;;;;;;8.52;4.28;;;;;;;17.59;90.68;100870.44;4897078;29;20028;-52
2023/07/12 01:43:19;;;;;;;8.13;4.10;;;;;;;17.51;90.96;100881.88;4899056;29;20087;-52
2023/07/12 01:45:44;;;;;;;8.45;4.18;;;;;;;17.41;91.66;100877.53;4911321;29;20111;-52
2023/07/12 01:48:09;;;;;;;8.57;4.25;;;;;;;17.43;92.22;100856.47;4909617;29;20841;-52
2023/07/12 01:50:35;;;;;;;11.32;4.97;;;;;;;17.47;91.37;100843.25;4904007;29;20032;-52
2023/07/12 01:53:01;;;;;;;8.45;4.57;;;;;;;17.48;91.50;100833.59;4900614;29;20036;-53
2023/07/12 01:55:26;;;;;;;7.20;4.47;;;;;;;17.48;92.01;100839.75;4898977;29;20028;-53
2023/07/12 01:57:51;;;;;;;9.10;4.53;;;;;;;17.58;93.02;100848.47;4898751;29;20024;-53
2023/07/12 02:00:17;;;;;;;7.28;4.15;;;;;;;17.58;92.56;100850.22;4898604;29;20040;-53
2023/07/12 02:02:42;;;;;;;9.57;4.38;;;;;;;17.50;94.58;100858.19;4898133;29;20470;-53
2023/07/12 02:05:08;;;;;;;10.48;4.93;;;;;;;17.40;94.58;100852.06;4897401;29;20031;-53
2023/07/12 02:07:33;;;;;;;8.60;4.70;;;;;;;17.30;95.38;100834.56;4908953;29;20028;-54
2023/07/12 02:10:12;;;;;;;9.98;4.72;;;;;;;17.30;95.11;100840.69;4898296;29;20084;-54
2023/07/12 02:12:38;;;;;;;8.38;4.32;;;;;;;17.21;96.64;100810.00;4898100;29;20032;-53
2023/07/12 02:15:03;;;;;;;9.43;4.53;;;;;;;17.04;97.17;100801.31;4907724;29;20095;-53
2023/07/12 02:17:29;;;;;;;8.65;4.57;;;;;;;17.07;97.61;100848.69;4898157;29;20119;-53
2023/07/12 02:19:54;;;;;;;9.57;4.72;;;;;;;17.07;98.50;100882.91;4898306;29;20024;-54
2023/07/12 02:22:19;;;;;;;9.95;4.95;;;;;;;17.07;97.78;100884.69;4897999;29;20043;-54
2023/07/12 02:24:45;;;;;;;8.55;4.88;;;;;;;17.12;97.91;100886.41;4896614;29;20048;-53
2023/07/12 02:27:10;;;;;;;9.10;4.60;;;;;;;17.20;97.54;100881.97;4898134;29;20439;-54
2023/07/12 02:29:35;;;;;;;8.68;4.50;;;;;;;17.24;95.75;100897.81;4908631;29;20135;-54
2023/07/12 02:32:01;;;;;;;8.77;4.72;;;;;;;17.12;97.86;100870.63;4910754;29;20056;-54
2023/07/12 02:34:26;;;;;;;7.82;4.72;;;;;;;17.06;95.52;100831.16;4914372;29;20039;-54
2023/07/12 02:36:51;;;;;;;8.65;4.38;;;;;;;17.03;97.61;100853.09;4914264;29;20058;-54
2023/07/12 02:39:16;;;;;;;7.25;4.40;;;;;;;17.06;97.41;100861.84;4915498;29;20024;-54
2023/07/12 02:41:42;;;;;;;8.65;4.18;;;;;;;17.14;97.19;100854.81;4915882;29;20035;-53
2023/07/12 02:44:07;;;;;;;9.48;4.72;;;;;;;17.12;96.81;100854.81;4914579;29;20024;-54
2023/07/12 02:46:32;;;;;;;8.30;4.43;;;;;;;17.04;98.21;100868.00;4914856;29;20039;-54
2023/07/12 02:48:58;;;;;;;8.20;4.15;;;;;;;17.03;98.24;100862.72;4915679;29;20422;-53
2023/07/12 02:51:23;;;;;;;8.65;4.28;;;;;;;17.05;98.42;100861.00;4915474;29;20032;-54
2023/07/12 02:53:48;;;;;;;9.48;4.18;;;;;;;17.03;98.47;100862.72;4913264;29;20039;-54
2023/07/12 02:56:13;;;;;;;8.10;4.30;;;;;;;17.03;98.02;100868.00;4914771;29;20443;-53
2023/07/12 02:58:39;;;;;;;7.45;3.78;;;;;;;17.04;98.69;100860.09;4912316;29;20032;-54
2023/07/12 03:01:04;;;;;;;7.45;3.47;;;;;;;17.06;95.80;100862.75;4915173;29;20032;-54
2023/07/12 03:03:30;;;;;;;6.22;3.50;;;;;;;17.06;96.92;100862.75;4914224;29;20119;-53
2023/07/12 03:05:55;;;;;;;7.63;3.58;;;;;;;17.02;95.09;100869.75;4913964;29;20024;-53
2023/07/12 03:08:20;;;;;;;6.80;3.30;;;;;;;17.02;96.95;100871.53;4913893;29;20421;-53
2023/07/12 03:10:46;;;;;;;6.18;3.30;;;;;;;16.93;94.76;100874.16;4913841;29;20119;-54
2023/07/12 03:13:11;;;;;;;4.97;2.72;;;;;;;16.94;96.80;100878.56;4914251;29;20036;-54
2023/07/12 03:15:38;;;;;;;7.05;3.10;;;;;;;16.93;98.84;100885.59;4915490;29;20024;-53
2023/07/12 03:18:03;;;;;;;4.85;2.90;;;;;;;16.89;98.76;100891.72;4914021;29;20032;-54
2023/07/12 03:20:29;;;;;;;5.15;3.05;;;;;;;16.93;96.88;100889.97;4896706;29;20028;-53
2023/07/12 03:22:54;;;;;;;5.63;2.95;;;;;;;16.89;97.59;100886.47;4914463;29;20028;-53
2023/07/12 03:25:19;;;;;;;5.10;2.80;;;;;;;16.88;97.83;100881.22;4914573;29;20133;-54
2023/07/12 03:27:47;;;;;;;6.47;2.58;;;;;;;16.92;99.15;100880.34;4913515;29;20107;-53
2023/07/12 03:30:12;;;;;;;5.25;2.83;;;;;;;16.92;98.11;100886.47;4887007;29;20075;-54
2023/07/12 03:32:38;;;;;;;6.13;2.85;;;;;;;16.83;98.78;100884.69;4913452;29;20028;-54
2023/07/12 03:35:04;;;;;;;5.85;3.25;;;;;;;16.81;98.81;100888.19;4910202;29;20047;-53
2023/07/12 03:37:29;;;;;;;6.88;3.10;;;;;;;16.72;98.57;100891.72;4907950;29;20032;-53
2023/07/12 03:39:55;;;;;;;5.57;2.88;;;;;;;16.72;99.11;100899.63;4914024;29;20029;-53
2023/07/12 03:42:21;;;;;;;5.88;2.78;;;;;;;16.74;99.24;100902.25;4912620;29;20036;-54
2023/07/12 03:44:46;;;;;;;6.05;2.90;;;;;;;16.75;99.42;100893.47;4913908;29;20059;-53
2023/07/12 03:47:12;;;;;;;6.65;3.20;;;;;;;16.75;97.28;100896.97;4913319;29;20028;-53
2023/07/12 03:49:37;;;;;;;5.75;2.95;;;;;;;16.76;97.61;100906.63;4896775;29;20418;-53
2023/07/12 03:52:03;;;;;;;5.82;3.30;;;;;;;16.72;98.46;100914.53;4913789;29;20149;-53
2023/07/12 03:54:28;;;;;;;6.93;3.70;;;;;;;16.66;96.75;100915.41;4911569;29;20040;-54
2023/07/12 03:56:55;;;;;;;7.25;3.83;;;;;;;16.61;99.44;100919.78;4873608;29;20028;-52
2023/07/12 03:59:20;;;;;;;7.20;3.70;;;;;;;16.57;98.63;100912.75;4914358;29;20036;-54
2023/07/12 04:01:46;;;;;;;6.07;3.70;;;;;;;16.54;97.26;100911.03;4915371;29;20020;-53
2023/07/12 04:04:11;;;;;;;6.22;3.60;;;;;;;16.51;97.17;100919.78;4897101;29;20028;-53
2023/07/12 04:06:36;;;;;;;7.22;3.72;;;;;;;16.52;98.41;100929.44;4906726;29;20440;-53
2023/07/12 04:09:02;;;;;;;10.95;4.30;;;;;;;16.51;98.71;100925.06;4895946;29;20032;-52
2023/07/12 04:11:32;;;;;;;8.23;4.57;;;;;;;16.44;99.32;100915.41;4896879;29;20103;-52
2023/07/12 04:13:59;;;;;;;7.55;4.60;;;;;;;16.41;99.41;100919.78;4909914;29;20040;-53
2023/07/12 04:16:24;;;;;;;10.43;4.80;;;;;;;16.43;98.90;100918.91;4914131;29;20047;-52
2023/07/12 04:18:51;;;;;;;7.07;4.00;;;;;;;16.41;98.69;100927.66;4914913;29;20039;-49
2023/07/12 04:21:17;;;;;;;7.38;4.22;;;;;;;16.42;98.21;100930.28;4914867;29;20130;-52
2023/07/12 04:23:42;;;;;;;8.00;4.60;;;;;;;16.41;96.87;100930.28;4914790;29;20546;-53
2023/07/12 04:26:09;;;;;;;8.25;4.55;;;;;;;16.38;97.92;100932.91;4913805;29;20553;-52
2023/07/12 04:28:38;;;;;;;7.95;4.57;;;;;;;16.34;98.61;100938.19;4913305;29;20031;-53
2023/07/12 04:31:06;;;;;;;9.38;4.60;;;;;;;16.36;98.83;100925.03;4913334;29;20098;-53
2023/07/12 04:33:31;;;;;;;7.55;4.28;;;;;;;16.43;97.85;100926.78;4914093;29;20071;-52
2023/07/12 04:35:56;;;;;;;7.88;4.60;;;;;;;16.41;98.69;100928.56;4913194;29;20393;-52
2023/07/12 04:38:22;;;;;;;7.93;4.30;;;;;;;16.36;98.51;100932.91;4912675;29;20036;-49
2023/07/12 04:40:54;;;;;;;8.15;4.18;;;;;;;16.37;98.84;100926.78;4912386;29;20060;-51
2023/07/12 04:43:19;;;;;;;8.38;4.32;;;;;;;16.43;99.00;100929.44;4913656;29;20032;-51
2023/07/12 04:45:46;;;;;;;7.35;4.40;;;;;;;16.41;98.60;100925.94;4910959;29;20099;-52
2023/07/12 04:48:11;;;;;;;8.80;3.95;;;;;;;16.39;99.07;100927.66;4913614;29;20036;-51
2023/07/12 04:50:36;;;;;;;7.63;3.80;;;;;;;16.35;98.85;100931.16;4912253;29;20082;-49
2023/07/12 04:53:03;;;;;;;8.13;3.65;;;;;;;16.34;98.59;100926.78;4913335;29;20034;-50
2023/07/12 04:55:28;;;;;;;8.75;3.58;;;;;;;16.30;99.06;100932.94;4909079;29;20483;-53
2023/07/12 04:57:54;;;;;;;6.22;3.70;;;;;;;16.27;99.27;100935.56;4896625;29;20409;-51
2023/07/12 05:00:19;;;;;;;7.25;3.70;;;;;;;16.29;99.38;100934.69;4913074;29;20423;-52
2023/07/12 05:02:46;;;;;;;8.02;3.33;;;;;;;16.29;99.04;100932.06;4909814;29;20028;-51
2023/07/12 05:05:12;;;;;;;8.57;3.67;;;;;;;16.24;98.57;100939.06;4912121;29;20111;-52
2023/07/12 05:07:38;;;;;;;8.82;3.60;;;;;;;16.31;98.36;100942.56;4913054;29;20024;-50
2023/07/12 05:10:04;;;;;;;6.88;3.47;;;;;;;16.25;98.68;100939.91;4912607;29;20042;-51
2023/07/12 05:12:30;;;;;;;5.88;3.30;;;;;;;16.25;99.07;100938.19;4894764;29;20078;-50
2023/07/12 05:14:56;;;;;;;7.25;3.50;;;;;;;16.25;98.82;100948.69;4912984;29;20532;-48
2023/07/12 05:17:21;;;;;;;9.45;3.25;;;;;;;16.28;99.61;100951.31;4911435;29;20032;-50
2023/07/12 05:19:46;;;;;;;7.90;3.40;;;;;;;16.33;99.67;100953.97;4912228;29;20422;-51
2023/07/12 05:22:11;;;;;;;10.00;3.97;;;;;;;16.34;99.20;100951.34;4895475;29;20039;-51
2023/07/12 05:24:37;;;;;;;9.43;3.58;;;;;;;16.38;98.81;100957.50;4910593;29;20024;-52
2023/07/12 05:27:03;;;;;;;9.30;3.85;;;;;;;16.43;99.75;100962.75;4912424;29;20399;-53
2023/07/12 05:29:28;;;;;;;7.97;3.80;;;;;;;16.50;99.62;100968.00;4895919;29;20047;-49
2023/07/12 05:31:54;;;;;;;7.75;3.80;;;;;;;16.54;98.75;100968.00;4912640;29;20044;-52
2023/07/12 05:34:19;;;;;;;7.65;3.95;;;;;;;16.56;98.40;100953.97;4912798;29;20052;-48
2023/07/12 05:36:45;;;;;;;10.05;4.35;;;;;;;16.58;98.24;100956.63;4910649;29;20111;-51
2023/07/12 05:39:10;;;;;;;9.48;4.25;;;;;;;16.57;97.49;100962.75;4913308;29;20123;-52
2023/07/12 05:41:35;;;;;;;10.98;4.22;;;;;;;16.60;97.52;100963.63;4912161;29;20398;-48
2023/07/12 05:44:01;;;;;;;9.57;4.10;;;;;;;16.71;97.10;100965.41;4912850;29;20087;-51
2023/07/12 05:46:27;;;;;;;10.68;4.53;;;;;;;16.63;97.53;100958.38;4894485;29;20574;-51
2023/07/12 05:48:52;;;;;;;8.88;4.18;;;;;;;16.69;97.27;100968.03;4913689;29;20495;-51
2023/07/12 05:51:17;;;;;;;8.07;4.50;;;;;;;16.72;96.42;100962.75;4911613;29;20184;-51
2023/07/12 05:53:43;;;;;;;9.25;3.88;;;;;;;16.73;97.11;100968.88;4893956;29;20040;-51
2023/07/12 05:56:08;;;;;;;11.27;4.15;;;;;;;16.67;97.62;100969.78;4896406;29;20024;-52
2023/07/12 05:58:35;;;;;;;10.38;4.47;;;;;;;16.71;97.25;100963.63;4913277;29;20160;-48
2023/07/12 06:01:02;;;;;;;7.82;4.35;;;;;;;16.70;96.28;100964.53;4913107;29;20032;-50
2023/07/12 06:03:29;;;;;;;9.77;4.50;;;;;;;16.74;97.35;100979.41;4913040;29;20040;-49
2023/07/12 06:05:55;;;;;;;8.68;4.05;;;;;;;16.86;95.66;100987.31;4913712;29;20024;-50
2023/07/12 06:08:21;;;;;;;9.65;4.20;;;;;;;16.80;97.48;100992.59;4913509;29;20483;-51
2023/07/12 06:10:47;;;;;;;7.40;3.75;;;;;;;16.83;96.20;100987.31;4909806;29;20043;-49
2023/07/12 06:13:13;;;;;;;7.97;4.22;;;;;;;16.91;96.64;100982.09;4908968;29;20036;-51
2023/07/12 06:15:38;;;;;;;10.13;4.63;;;;;;;16.98;95.24;100981.22;4913212;29;20107;-49
2023/07/12 06:18:04;;;;;;;8.05;4.55;;;;;;;16.98;95.75;100989.09;4913059;29;20059;-50
2023/07/12 06:20:29;;;;;;;10.75;4.40;;;;;;;17.03;95.85;100982.09;4916357;29;20067;-51
2023/07/12 06:22:55;;;;;;;9.30;4.68;;;;;;;17.13;94.29;100985.59;4916877;29;20032;-48
2023/07/12 06:25:20;;;;;;;7.45;4.47;;;;;;;17.14;94.48;100983.84;4916637;29;20020;-50
2023/07/12 06:27:45;;;;;;;9.25;4.68;;;;;;;17.20;93.73;100992.59;4911426;29;20029;-50
2023/07/12 06:30:11;;;;;;;7.95;4.82;;;;;;;17.17;94.79;100989.97;4913445;29;20474;-51
2023/07/12 06:32:37;;;;;;;8.15;4.70;;;;;;;17.29;93.92;100983.81;4913697;29;20475;-51
2023/07/12 06:35:03;;;;;;;10.52;5.47;;;;;;;17.30;94.63;100993.44;4899843;29;20039;-49
2023/07/12 06:37:28;;;;;;;9.55;5.28;;;;;;;17.38;94.41;101004.00;4901666;29;20032;-48
2023/07/12 06:39:54;;;;;;;11.80;5.07;;;;;;;17.46;92.21;101010.09;4907299;29;20032;-50
2023/07/12 06:42:19;;;;;;;10.68;5.13;;;;;;;17.49;92.45;101023.25;4895997;29;20044;-49
2023/07/12 06:44:47;;;;;;;8.77;5.07;;;;;;;17.51;91.49;101016.25;4899643;29;20033;-50
2023/07/12 06:47:12;;;;;;;10.60;5.30;;;;;;;17.41;92.28;101027.69;4901799;29;20040;-49
2023/07/12 06:49:38;;;;;;;10.82;4.90;;;;;;;17.43;93.33;101022.41;4896054;29;20475;-48
2023/07/12 06:52:03;;;;;;;9.43;4.93;;;;;;;17.50;91.07;101024.16;4899796;29;20036;-48
2023/07/12 06:54:29;;;;;;;10.48;5.38;;;;;;;17.48;92.48;101028.53;4905510;29;20032;-50
2023/07/12 06:56:54;;;;;;;10.70;4.85;;;;;;;17.48;91.22;101032.06;4903373;29;20028;-50
2023/07/12 06:59:19;;;;;;;12.90;4.80;;;;;;;17.44;90.66;101032.94;4898929;29;20542;-51
2023/07/12 07:01:47;;;;;;;7.50;4.55;;;;;;;17.48;91.64;101039.06;4900149;29;20111;-48
2023/07/12 07:04:13;;;;;;;11.35;4.57;;;;;;;17.53;91.49;101054.00;4908181;29;20379;-47
2023/07/12 07:06:38;;;;;;;9.48;4.55;;;;;;;17.56;91.23;101053.13;4906186;29;20036;-51
2023/07/12 07:09:03;;;;;;;11.30;4.30;;;;;;;17.60;90.32;101064.50;4896460;29;20047;-48
2023/07/12 07:11:29;;;;;;;10.15;4.53;;;;;;;17.53;90.75;101059.25;4907080;29;20035;-52
2023/07/12 07:13:55;;;;;;;8.15;4.90;;;;;;;17.47;91.36;101059.28;4905273;29;20039;-48
2023/07/12 07:16:21;;;;;;;9.05;5.25;;;;;;;17.47;91.30;101064.56;4899094;29;20497;-49
2023/07/12 07:18:46;;;;;;;9.07;4.75;;;;;;;17.46;90.04;101057.53;4895516;29;20051;-50
2023/07/12 07:21:11;;;;;;;10.68;4.88;;;;;;;17.52;90.45;101056.63;4896595;29;20028;-49
2023/07/12 07:23:36;;;;;;;9.75;5.18;;;;;;;17.59;90.61;101057.50;4897752;29;20047;-51
2023/07/12 07:26:09;;;;;;;9.35;4.57;;;;;;;17.67;90.12;101064.53;4895406;29;20483;-49
2023/07/12 07:28:35;;;;;;;12.88;5.88;;;;;;;17.72;89.53;101065.38;4905435;29;20459;-51
2023/07/12 07:31:00;;;;;;;11.98;5.57;;;;;;;17.78;89.31;101069.75;4903032;29;20107;-51
2023/07/12 07:33:27;;;;;;;10.02;5.30;;;;;;;17.84;90.02;101074.13;4913012;29;20095;-48
2023/07/12 07:35:52;;;;;;;11.02;5.40;;;;;;;17.89;88.53;101075.88;4895944;29;20028;-50
2023/07/12 07:38:18;;;;;;;11.55;5.40;;;;;;;17.95;87.95;101071.50;4912452;29;20035;-50
2023/07/12 07:40:43;;;;;;;10.50;5.43;;;;;;;17.98;88.92;101082.91;4914747;29;20115;-50
2023/07/12 07:43:11;;;;;;;10.32;5.30;;;;;;;18.03;87.73;101085.53;4913749;29;20483;-47
2023/07/12 07:45:37;;;;;;;11.35;5.25;;;;;;;18.05;87.61;101087.28;4913384;29;20032;-49
2023/07/12 07:48:02;;;;;;;11.25;5.60;;;;;;;18.13;85.28;101091.66;4913808;29;20032;-50
2023/07/12 07:50:28;;;;;;;9.50;5.25;;;;;;;18.22;85.87;101081.94;4915346;29;20082;-49
2023/07/12 07:52:53;;;;;;;12.25;5.63;;;;;;;18.35;85.53;101082.78;4914555;29;20085;-49
2023/07/12 07:55:19;;;;;;;10.40;5.07;;;;;;;18.44;85.83;101097.69;4913719;29;20111;-51
2023/07/12 07:57:45;;;;;;;12.38;5.25;;;;;;;18.51;84.43;101093.22;4913876;29;20084;-48
2023/07/12 08:00:12;;;;;;;10.77;5.28;;;;;;;18.56;83.78;101094.09;4912723;29;20195;-49
2023/07/12 08:02:37;;;;;;;9.15;5.00;;;;;;;18.62;82.67;101101.97;4910781;29;20543;-49
2023/07/12 08:05:03;;;;;;;9.85;5.30;;;;;;;18.57;84.57;101098.50;4904724;29;20120;-51
2023/07/12 08:07:28;;;;;;;9.55;5.15;;;;;;;18.63;85.16;101103.75;4911930;29;20136;-52
2023/07/12 08:09:54;;;;;;;9.48;5.50;;;;;;;18.68;83.56;101109.84;4910111;29;20546;-51
2023/07/12 08:12:19;;;;;;;12.80;5.88;;;;;;;18.66;82.53;101102.84;4911316;29;20102;-51
2023/07/12 08:14:45;;;;;;;11.20;6.20;;;;;;;18.68;82.56;101116.91;4914761;29;20375;-50
2023/07/12 08:17:10;;;;;;;10.70;6.05;;;;;;;18.68;80.54;101108.97;4914330;29;20057;-49
2023/07/12 08:19:36;;;;;;;10.25;6.05;;;;;;;18.63;81.15;101108.16;4913519;29;20608;-48
2023/07/12 08:22:01;;;;;;;10.10;6.38;;;;;;;18.61;81.27;101113.44;4914180;29;20040;-50
2023/07/12 08:24:26;;;;;;;10.65;6.28;;;;;;;18.65;82.21;101122.19;4912149;29;20020;-48
2023/07/12 08:26:51;;;;;;;11.57;5.93;;;;;;;18.70;80.67;101125.72;4912490;29;20028;-50
2023/07/12 08:29:17;;;;;;;10.77;5.90;;;;;;;18.72;80.94;101118.66;4912732;29;20028;-50
2023/07/12 08:31:42;;;;;;;11.98;5.55;;;;;;;18.72;82.54;101130.06;4913945;29;20521;-51
2023/07/12 08:34:07;;;;;;;12.32;6.13;;;;;;;18.76;83.29;101120.38;4913783;29;20165;-48
2023/07/12 08:36:33;;;;;;;10.73;5.53;;;;;;;18.89;81.44;101122.09;4914369;29;20032;-51
2023/07/12 08:38:58;;;;;;;10.82;5.53;;;;;;;18.89;82.14;101132.66;4913034;29;20099;-51
2023/07/12 08:41:26;;;;;;;11.40;6.75;;;;;;;18.94;81.15;101130.88;4910910;29;20486;-51
2023/07/12 08:43:52;;;;;;;10.38;6.18;;;;;;;19.03;79.71;101134.31;4910981;29;20027;-49
2023/07/12 08:46:21;;;;;;;9.38;6.55;;;;;;;18.99;79.21;101135.22;4914313;29;20062;-49
2023/07/12 08:48:51;;;;;;;;;;;;;;;18.97;80.59;101134.38;4913101;29;20111;-49
2023/07/12 08:51:24;;;;;;;13.60;6.75;;;;;;;18.96;81.65;101136.13;4913420;29;19915;-52
2023/07/12 08:53:50;;;;;;;12.65;6.60;;;;;;;19.05;83.10;101137.84;4912163;29;20035;-51
2023/07/12 08:56:18;;;;;;;13.07;6.88;;;;;;;19.15;81.02;101130.72;4910431;29;20036;-52
2023/07/12 08:58:47;;;;;;;12.10;6.93;;;;;;;19.16;78.20;101151.84;4910605;29;20035;-52
2023/07/12 09:01:43;;;;;;;11.60;6.72;;;;;;;19.02;80.14;101140.50;4909272;29;20024;-52
2023/07/12 09:04:24;;;;;;;10.90;6.60;;;;;;;18.96;79.83;101148.44;4909580;29;20091;-52
2023/07/12 09:06:53;;;;;;;10.95;6.00;;;;;;;18.94;78.67;101141.44;4913302;29;20056;-50
2023/07/12 09:09:19;;;;;;;11.93;6.38;;;;;;;19.03;79.36;101147.53;4912878;29;20035;-52
2023/07/12 09:11:45;;;;;;;10.38;6.38;;;;;;;19.14;79.20;101147.47;4914268;29;20031;-52
2023/07/12 09:14:19;;;;;;;10.07;6.28;;;;;;;19.24;78.51;101139.44;4914019;29;20098;-51
2023/07/12 09:16:50;;;;;;;9.65;6.30;;;;;;;19.49;78.83;101143.66;4913958;29;20521;-51
2023/07/12 09:19:20;;;;;;;10.35;6.40;;;;;;;19.76;78.46;101129.31;4914036;29;20040;-50
2023/07/12 09:21:54;;;;;;;9.27;5.82;;;;;;;20.03;77.52;101140.53;4912913;29;20419;-52
2023/07/12 09:24:26;;;;;;;7.43;5.13;;;;;;;20.13;74.26;101144.81;4913977;29;20111;-52
2023/07/12 09:27:00;;;;;;;9.18;5.60;;;;;;;20.29;73.00;101129.63;4914129;29;20091;-52
2023/07/12 09:29:26;;;;;;;11.80;5.80;;;;;;;20.45;73.84;101133.88;4913152;29;20028;-52
2023/07/12 09:31:56;;;;;;;9.82;6.10;;;;;;;20.55;71.95;101128.44;4913879;29;20052;-52
2023/07/12 09:34:39;;;;;;;9.57;5.88;;;;;;;20.60;72.30;101134.56;4913306;29;20032;-52
2023/07/12 09:37:14;;;;;;;10.70;6.05;;;;;;;20.74;71.93;101123.78;4913252;29;20123;-52
2023/07/12 09:39:39;;;;;;;11.27;6.30;;;;;;;20.92;72.37;101123.53;4913304;29;20020;-52
2023/07/12 09:42:04;;;;;;;10.10;5.63;;;;;;;21.10;69.99;101124.16;4913561;29;20371;-53
2023/07/12 09:44:30;;;;;;;10.23;6.00;;;;;;;21.24;69.01;101118.63;4913795;29;20386;-52
2023/07/12 09:47:13;;;;;;;10.13;6.22;;;;;;;21.17;71.89;101117.84;4914155;29;20441;-53
2023/07/12 09:49:51;;;;;;;7.80;5.80;;;;;;;21.34;67.95;101126.41;4913934;29;20062;-53
2023/07/12 09:52:27;;;;;;;9.50;6.07;;;;;;;21.10;69.85;101126.78;4913488;29;20024;-53
2023/07/12 09:55:00;;;;;;;8.13;5.60;;;;;;;20.99;67.54;101119.03;4915569;29;20036;-54
2023/07/12 09:57:54;;;;;;;10.20;6.20;;;;;;;21.00;67.90;101112.81;4917630;29;20030;-53
2023/07/12 10:01:00;;;;;;;13.52;5.90;;;;;;;21.19;68.19;101108.13;4917438;29;20035;-53
2023/07/12 10:03:52;;;;;;;7.97;5.22;;;;;;;21.30;68.39;101110.56;4858792;29;20062;-53
2023/07/12 10:06:39;;;;;;;7.70;4.90;;;;;;;21.56;67.13;101099.53;4915866;29;20084;-53
2023/07/12 10:09:08;;;;;;;9.75;4.47;;;;;;;21.75;65.03;101099.22;4917687;29;20115;-54
2023/07/12 10:11:47;;;;;;;8.70;4.30;;;;;;;21.67;65.72;101094.94;4916543;29;20038;-54
2023/07/12 10:14:14;;;;;;;;;;;;;;;21.80;65.95;101102.66;4916939;29;20024;-54
2023/07/12 10:16:47;;;;;;;8.25;4.53;;;;;;;21.96;65.20;101095.28;4916916;29;19939;-53
2023/07/12 10:19:24;;;;;;;6.93;3.67;;;;;;;22.09;63.64;101093.22;4917113;29;20039;-53
2023/07/12 10:21:52;;;;;;;7.47;3.90;;;;;;;22.22;62.32;101100.94;4916885;29;20091;-54
2023/07/12 10:24:20;;;;;;;10.05;4.03;;;;;;;22.12;63.55;101106.47;4916563;29;20028;-54
2023/07/12 10:26:47;;;;;;;9.88;4.50;;;;;;;22.17;63.37;101099.28;4916829;29;20398;-54
2023/07/12 10:29:32;;;;;;;10.70;4.30;;;;;;;22.33;64.75;101095.44;4916354;29;20020;-54
2023/07/12 10:32:00;;;;;;;6.70;3.60;;;;;;;22.57;60.99;101115.25;4916446;29;20059;-53
2023/07/12 10:34:46;;;;;;;8.07;3.53;;;;;;;22.84;60.03;101114.66;4915995;29;20020;-54
2023/07/12 10:37:27;;;;;;;7.18;3.72;;;;;;;22.75;60.49;101111.34;4912689;29;20032;-54
2023/07/12 10:39:53;;;;;;;7.32;3.50;;;;;;;22.67;58.88;101118.59;4916766;29;20043;-54
2023/07/12 10:42:24;;;;;;;7.05;3.38;;;;;;;22.53;61.76;101126.00;4916596;29;20154;-54
2023/07/12 10:44:54;;;;;;;6.80;3.42;;;;;;;22.57;62.45;101117.06;4916635;29;20024;-54
2023/07/12 10:47:23;;;;;;;6.57;3.67;;;;;;;22.82;61.56;101117.34;4916553;29;20483;-54
2023/07/12 10:50:35;;;;;;;6.90;3.42;;;;;;;23.06;61.69;101115.91;4915847;29;20043;-54
2023/07/12 10:53:10;;;;;;;8.23;3.83;;;;;;;23.24;60.46;101113.75;4899046;29;20063;-54
2023/07/12 10:55:39;;;;;;;6.68;3.80;;;;;;;23.14;57.81;101114.88;4915669;29;20036;-54
2023/07/12 10:58:26;;;;;;;7.55;3.63;;;;;;;22.99;60.26;101109.00;4916486;29;20360;-53
2023/07/12 11:00:59;;;;;;;6.18;3.30;;;;;;;22.94;60.61;101118.84;4916355;29;20052;-54
2023/07/12 11:03:38;;;;;;;6.72;3.20;;;;;;;23.09;61.19;101114.97;4916209;29;20060;-54
2023/07/12 11:06:25;;;;;;;6.53;3.25;;;;;;;23.30;59.13;101118.03;4915123;29;20455;-55
2023/07/12 11:09:09;;;;;;;6.35;3.20;;;;;;;23.35;58.49;101122.34;4914102;29;20048;-55
2023/07/12 11:11:41;;;;;;;6.82;3.30;;;;;;;23.52;60.32;101105.06;4915369;29;20028;-54
2023/07/12 11:14:16;;;;;;;8.10;3.30;;;;;;;23.42;58.59;101107.97;4916058;29;20032;-55
2023/07/12 11:16:52;;;;;;;5.75;3.00;;;;;;;23.52;59.96;101105.06;4915214;29;20040;-54
2023/07/12 11:19:37;;;;;;;8.52;3.20;;;;;;;23.64;58.98;101104.75;4915882;29;20490;-55
2023/07/12 11:22:12;;;;;;;8.65;3.53;;;;;;;23.91;55.70;101113.81;4915915;29;20127;-54
2023/07/12 11:24:40;;;;;;;7.28;3.20;;;;;;;24.11;55.53;101113.25;4915425;29;20024;-55
2023/07/12 11:27:23;;;;;;;5.43;3.17;;;;;;;24.32;56.15;101110.88;4915746;29;20032;-55
2023/07/12 11:29:52;;;;;;;6.80;3.35;;;;;;;24.17;53.41;101106.84;4915689;29;20160;-55